sensor_id;sensor_type;location;lat;lon;timestamp;P1;durP1;ratioP1;P2;durP2;ratioP2
215;SDS011;70668;48.81286795;9.14184224;2023-11-21T00:00:07;8.80;;;3.00;;
215;SDS011;70668;48.81286795;9.14184224;2023-11-21T00:02:41;6.77;;;2.70;;
215;SDS011;70668;48.81286795;9.14184224;2023-11-21T00:05:13;6.33;;;2.60;;
215;SDS011;70668;48.81286795;9.14184224;2023-11-21T00:07:42;9.83;;;2.73;;
215;SDS011;70668;48.81286795;9.14184224;2023-11-21T00:10:11;6.40;;;2.83;;
215;SDS011;70668;48.81286795;9.14184224;2023-11-21T00:12:42;7.83;;;2.60;;
215;SDS011;70668;48.81286795;9.14184224;2023-11-21T00:15:13;5.23;;;2.30;;
215;SDS011;70668;48.81286795;9.14184224;2023-11-21T00:17:42;7.00;;;2.83;;
215;SDS011;70668;48.81286795;9.14184224;2023-11-21T00:20:14;5.60;;;2.50;;
215;SDS011;70668;48.81286795;9.14184224;2023-11-21T00:22:43;5.90;;;2.40;;
215;SDS011;70668;48.81286795;9.14184224;2023-11-21T00:25:12;5.00;;;2.30;;
215;SDS011;70668;48.81286795;9.14184224;2023-11-21T00:27:42;6.23;;;2.90;;
215;SDS011;70668;48.81286795;9.14184224;2023-11-21T00:30:11;5.73;;;2.30;;
215;SDS011;70668;48.81286795;9.14184224;2023-11-21T00:32:41;7.53;;;2.50;;
215;SDS011;70668;48.81286795;9.14184224;2023-11-21T00:35:10;7.30;;;2.30;;
215;SDS011;70668;48.81286795;9.14184224;2023-11-21T00:37:41;10.97;;;2.37;;
215;SDS011;70668;48.81286795;9.14184224;2023-11-21T00:40:10;9.90;;;2.60;;
215;SDS011;70668;48.81286795;9.14184224;2023-11-21T00:42:41;7.23;;;2.13;;
215;SDS011;70668;48.81286795;9.14184224;2023-11-21T00:45:09;7.47;;;2.63;;
215;SDS011;70668;48.81286795;9.14184224;2023-11-21T00:47:38;9.67;;;2.67;;
215;SDS011;70668;48.81286795;9.14184224;2023-11-21T00:50:08;9.30;;;2.77;;
215;SDS011;70668;48.81286795;9.14184224;2023-11-21T00:52:37;6.87;;;2.80;;
215;SDS011;70668;48.81286795;9.14184224;2023-11-21T00:55:08;9.00;;;2.87;;
215;SDS011;70668;48.81286795;9.14184224;2023-11-21T00:57:37;6.57;;;2.67;;
215;SDS011;70668;48.81286795;9.14184224;2023-11-21T01:00:06;7.57;;;2.80;;
215;SDS011;70668;48.81286795;9.14184224;2023-11-21T01:02:39;6.53;;;2.90;;
215;SDS011;70668;48.81286795;9.14184224;2023-11-21T01:05:08;7.00;;;2.83;;
215;SDS011;70668;48.81286795;9.14184224;2023-11-21T01:07:37;8.23;;;2.70;;
215;SDS011;70668;48.81286795;9.14184224;2023-11-21T01:10:05;10.13;;;2.80;;
215;SDS011;70668;48.81286795;9.14184224;2023-11-21T01:12:37;7.53;;;2.60;;
215;SDS011;70668;48.81286795;9.14184224;2023-11-21T01:15:07;6.27;;;2.27;;
215;SDS011;70668;48.81286795;9.14184224;2023-11-21T01:17:37;6.30;;;2.60;;
215;SDS011;70668;48.81286795;9.14184224;2023-11-21T01:20:06;7.33;;;3.10;;
215;SDS011;70668;48.81286795;9.14184224;2023-11-21T01:22:37;6.70;;;2.50;;
215;SDS011;70668;48.81286795;9.14184224;2023-11-21T01:25:09;8.67;;;2.50;;
215;SDS011;70668;48.81286795;9.14184224;2023-11-21T01:27:39;5.40;;;2.30;;
215;SDS011;70668;48.81286795;9.14184224;2023-11-21T01:30:08;9.80;;;2.37;;
215;SDS011;70668;48.81286795;9.14184224;2023-11-21T01:32:41;8.20;;;2.67;;
215;SDS011;70668;48.81286795;9.14184224;2023-11-21T01:35:10;6.57;;;2.20;;
215;SDS011;70668;48.81286795;9.14184224;2023-11-21T01:37:38;7.47;;;2.40;;
215;SDS011;70668;48.81286795;9.14184224;2023-11-21T01:40:10;8.50;;;2.30;;
215;SDS011;70668;48.81286795;9.14184224;2023-11-21T01:42:39;7.87;;;2.60;;
215;SDS011;70668;48.81286795;9.14184224;2023-11-21T01:45:09;5.40;;;2.00;;
215;SDS011;70668;48.81286795;9.14184224;2023-11-21T01:47:38;6.33;;;2.00;;
215;SDS011;70668;48.81286795;9.14184224;2023-11-21T01:50:07;5.03;;;2.30;;
215;SDS011;70668;48.81286795;9.14184224;2023-11-21T01:52:41;5.50;;;2.30;;
215;SDS011;70668;48.81286795;9.14184224;2023-11-21T01:55:15;6.40;;;2.00;;
215;SDS011;70668;48.81286795;9.14184224;2023-11-21T01:57:46;4.50;;;2.10;;
215;SDS011;70668;48.81286795;9.14184224;2023-11-21T02:00:15;4.43;;;1.90;;
215;SDS011;70668;48.81286795;9.14184224;2023-11-21T02:02:44;6.00;;;1.90;;
215;SDS011;70668;48.81286795;9.14184224;2023-11-21T02:05:14;7.80;;;2.27;;
215;SDS011;70668;48.81286795;9.14184224;2023-11-21T02:07:44;5.50;;;2.00;;
215;SDS011;70668;48.81286795;9.14184224;2023-11-21T02:10:17;6.83;;;2.00;;
215;SDS011;70668;48.81286795;9.14184224;2023-11-21T02:12:48;5.80;;;2.27;;
215;SDS011;70668;48.81286795;9.14184224;2023-11-21T02:15:18;6.53;;;2.10;;
215;SDS011;70668;48.81286795;9.14184224;2023-11-21T02:17:51;4.83;;;2.00;;
215;SDS011;70668;48.81286795;9.14184224;2023-11-21T02:20:21;7.87;;;2.10;;
215;SDS011;70668;48.81286795;9.14184224;2023-11-21T02:22:54;8.03;;;2.50;;
215;SDS011;70668;48.81286795;9.14184224;2023-11-21T02:25:26;4.83;;;2.00;;
215;SDS011;70668;48.81286795;9.14184224;2023-11-21T02:27:55;7.07;;;2.30;;
215;SDS011;70668;48.81286795;9.14184224;2023-11-21T02:30:24;6.83;;;2.10;;
215;SDS011;70668;48.81286795;9.14184224;2023-11-21T02:32:53;6.20;;;2.23;;
215;SDS011;70668;48.81286795;9.14184224;2023-11-21T02:35:22;6.27;;;1.93;;
215;SDS011;70668;48.81286795;9.14184224;2023-11-21T02:37:54;7.10;;;2.17;;
215;SDS011;70668;48.81286795;9.14184224;2023-11-21T02:40:24;4.60;;;2.10;;
215;SDS011;70668;48.81286795;9.14184224;2023-11-21T02:42:52;6.03;;;2.00;;
215;SDS011;70668;48.81286795;9.14184224;2023-11-21T02:45:24;4.40;;;1.90;;
215;SDS011;70668;48.81286795;9.14184224;2023-11-21T02:47:52;3.77;;;1.80;;
215;SDS011;70668;48.81286795;9.14184224;2023-11-21T02:50:22;3.80;;;2.00;;
215;SDS011;70668;48.81286795;9.14184224;2023-11-21T02:52:50;4.87;;;2.03;;
215;SDS011;70668;48.81286795;9.14184224;2023-11-21T02:55:22;4.17;;;2.10;;
215;SDS011;70668;48.81286795;9.14184224;2023-11-21T02:57:52;3.47;;;1.87;;
215;SDS011;70668;48.81286795;9.14184224;2023-11-21T03:00:21;5.63;;;2.20;;
215;SDS011;70668;48.81286795;9.14184224;2023-11-21T03:02:51;4.07;;;1.90;;
215;SDS011;70668;48.81286795;9.14184224;2023-11-21T03:05:21;4.90;;;2.07;;
215;SDS011;70668;48.81286795;9.14184224;2023-11-21T03:07:49;3.77;;;1.83;;
215;SDS011;70668;48.81286795;9.14184224;2023-11-21T03:10:18;3.90;;;2.00;;
215;SDS011;70668;48.81286795;9.14184224;2023-11-21T03:12:51;7.50;;;2.00;;
215;SDS011;70668;48.81286795;9.14184224;2023-11-21T03:15:19;5.80;;;2.10;;
215;SDS011;70668;48.81286795;9.14184224;2023-11-21T03:17:48;4.57;;;2.00;;
215;SDS011;70668;48.81286795;9.14184224;2023-11-21T03:20:17;5.47;;;2.17;;
215;SDS011;70668;48.81286795;9.14184224;2023-11-21T03:22:45;3.90;;;2.10;;
215;SDS011;70668;48.81286795;9.14184224;2023-11-21T03:25:14;4.30;;;1.80;;
215;SDS011;70668;48.81286795;9.14184224;2023-11-21T03:27:43;4.20;;;2.40;;
215;SDS011;70668;48.81286795;9.14184224;2023-11-21T03:30:15;5.23;;;2.10;;
215;SDS011;70668;48.81286795;9.14184224;2023-11-21T03:32:43;4.77;;;2.20;;
215;SDS011;70668;48.81286795;9.14184224;2023-11-21T03:35:13;5.67;;;1.90;;
215;SDS011;70668;48.81286795;9.14184224;2023-11-21T03:37:42;5.40;;;2.17;;
215;SDS011;70668;48.81286795;9.14184224;2023-11-21T03:40:11;4.20;;;2.00;;
215;SDS011;70668;48.81286795;9.14184224;2023-11-21T03:42:39;4.50;;;2.00;;
215;SDS011;70668;48.81286795;9.14184224;2023-11-21T03:45:09;4.20;;;2.10;;
215;SDS011;70668;48.81286795;9.14184224;2023-11-21T03:47:40;4.07;;;1.80;;
215;SDS011;70668;48.81286795;9.14184224;2023-11-21T03:50:09;5.53;;;2.03;;
215;SDS011;70668;48.81286795;9.14184224;2023-11-21T03:52:38;4.40;;;1.90;;
215;SDS011;70668;48.81286795;9.14184224;2023-11-21T03:55:06;4.07;;;2.13;;
215;SDS011;70668;48.81286795;9.14184224;2023-11-21T03:57:36;5.20;;;2.13;;
215;SDS011;70668;48.81286795;9.14184224;2023-11-21T04:00:05;3.47;;;1.90;;
215;SDS011;70668;48.81286795;9.14184224;2023-11-21T04:02:41;7.13;;;1.83;;
215;SDS011;70668;48.81286795;9.14184224;2023-11-21T04:05:09;5.90;;;2.00;;
215;SDS011;70668;48.81286795;9.14184224;2023-11-21T04:07:38;5.37;;;1.93;;
215;SDS011;70668;48.81286795;9.14184224;2023-11-21T04:10:07;3.40;;;1.70;;
215;SDS011;70668;48.81286795;9.14184224;2023-11-21T04:12:38;3.27;;;1.70;;
215;SDS011;70668;48.81286795;9.14184224;2023-11-21T04:15:07;5.03;;;1.70;;
215;SDS011;70668;48.81286795;9.14184224;2023-11-21T04:17:37;4.00;;;1.90;;
215;SDS011;70668;48.81286795;9.14184224;2023-11-21T04:20:09;4.50;;;1.80;;
215;SDS011;70668;48.81286795;9.14184224;2023-11-21T04:22:38;3.80;;;1.70;;
215;SDS011;70668;48.81286795;9.14184224;2023-11-21T04:25:09;4.00;;;1.80;;
215;SDS011;70668;48.81286795;9.14184224;2023-11-21T04:27:38;6.97;;;3.33;;
215;SDS011;70668;48.81286795;9.14184224;2023-11-21T04:30:09;5.27;;;1.70;;
215;SDS011;70668;48.81286795;9.14184224;2023-11-21T04:32:38;4.03;;;2.10;;
215;SDS011;70668;48.81286795;9.14184224;2023-11-21T04:35:10;4.87;;;1.77;;
215;SDS011;70668;48.81286795;9.14184224;2023-11-21T04:37:40;3.70;;;1.73;;
215;SDS011;70668;48.81286795;9.14184224;2023-11-21T04:40:09;5.17;;;1.83;;
215;SDS011;70668;48.81286795;9.14184224;2023-11-21T04:42:38;3.07;;;1.67;;
215;SDS011;70668;48.81286795;9.14184224;2023-11-21T04:45:08;3.70;;;1.70;;
215;SDS011;70668;48.81286795;9.14184224;2023-11-21T04:47:37;5.27;;;1.70;;
215;SDS011;70668;48.81286795;9.14184224;2023-11-21T04:50:06;5.40;;;1.80;;
215;SDS011;70668;48.81286795;9.14184224;2023-11-21T04:52:37;4.47;;;1.80;;
215;SDS011;70668;48.81286795;9.14184224;2023-11-21T04:55:06;4.27;;;2.03;;
215;SDS011;70668;48.81286795;9.14184224;2023-11-21T04:57:35;4.77;;;1.93;;
215;SDS011;70668;48.81286795;9.14184224;2023-11-21T05:00:04;5.93;;;2.23;;
215;SDS011;70668;48.81286795;9.14184224;2023-11-21T05:02:34;6.30;;;2.00;;
215;SDS011;70668;48.81286795;9.14184224;2023-11-21T05:05:03;3.83;;;2.00;;
215;SDS011;70668;48.81286795;9.14184224;2023-11-21T05:07:38;5.67;;;2.10;;
215;SDS011;70668;48.81286795;9.14184224;2023-11-21T05:10:08;5.80;;;1.90;;
215;SDS011;70668;48.81286795;9.14184224;2023-11-21T05:12:40;4.70;;;1.90;;
215;SDS011;70668;48.81286795;9.14184224;2023-11-21T05:15:09;6.27;;;2.00;;
215;SDS011;70668;48.81286795;9.14184224;2023-11-21T05:17:42;4.30;;;2.40;;
215;SDS011;70668;48.81286795;9.14184224;2023-11-21T05:20:12;6.03;;;2.10;;
215;SDS011;70668;48.81286795;9.14184224;2023-11-21T05:22:45;4.43;;;1.90;;
215;SDS011;70668;48.81286795;9.14184224;2023-11-21T05:25:14;4.07;;;2.03;;
215;SDS011;70668;48.81286795;9.14184224;2023-11-21T05:27:43;5.23;;;2.00;;
215;SDS011;70668;48.81286795;9.14184224;2023-11-21T05:30:12;5.07;;;2.10;;
215;SDS011;70668;48.81286795;9.14184224;2023-11-21T05:32:41;3.70;;;1.90;;
215;SDS011;70668;48.81286795;9.14184224;2023-11-21T05:35:11;4.90;;;1.90;;
215;SDS011;70668;48.81286795;9.14184224;2023-11-21T05:37:41;4.17;;;2.10;;
215;SDS011;70668;48.81286795;9.14184224;2023-11-21T05:40:12;4.50;;;2.10;;
215;SDS011;70668;48.81286795;9.14184224;2023-11-21T05:42:41;5.23;;;2.00;;
215;SDS011;70668;48.81286795;9.14184224;2023-11-21T05:45:10;4.27;;;2.03;;
215;SDS011;70668;48.81286795;9.14184224;2023-11-21T05:47:39;4.37;;;2.00;;
215;SDS011;70668;48.81286795;9.14184224;2023-11-21T05:50:09;6.10;;;2.30;;
215;SDS011;70668;48.81286795;9.14184224;2023-11-21T05:52:39;4.30;;;2.00;;
215;SDS011;70668;48.81286795;9.14184224;2023-11-21T05:55:11;5.97;;;2.20;;
215;SDS011;70668;48.81286795;9.14184224;2023-11-21T05:57:41;5.57;;;2.30;;
215;SDS011;70668;48.81286795;9.14184224;2023-11-21T06:00:12;6.20;;;2.03;;
215;SDS011;70668;48.81286795;9.14184224;2023-11-21T06:02:45;3.80;;;2.20;;
215;SDS011;70668;48.81286795;9.14184224;2023-11-21T06:05:16;4.30;;;2.10;;
215;SDS011;70668;48.81286795;9.14184224;2023-11-21T06:07:46;5.13;;;2.10;;
215;SDS011;70668;48.81286795;9.14184224;2023-11-21T06:10:17;4.13;;;1.90;;
215;SDS011;70668;48.81286795;9.14184224;2023-11-21T06:12:49;3.93;;;2.23;;
215;SDS011;70668;48.81286795;9.14184224;2023-11-21T06:15:17;8.17;;;2.00;;
215;SDS011;70668;48.81286795;9.14184224;2023-11-21T06:17:48;6.20;;;2.00;;
215;SDS011;70668;48.81286795;9.14184224;2023-11-21T06:20:18;6.53;;;2.13;;
215;SDS011;70668;48.81286795;9.14184224;2023-11-21T06:22:47;4.60;;;2.20;;
215;SDS011;70668;48.81286795;9.14184224;2023-11-21T06:25:19;3.73;;;2.00;;
215;SDS011;70668;48.81286795;9.14184224;2023-11-21T06:27:48;4.43;;;2.20;;
215;SDS011;70668;48.81286795;9.14184224;2023-11-21T06:30:19;5.83;;;3.43;;
215;SDS011;70668;48.81286795;9.14184224;2023-11-21T06:32:48;6.17;;;3.00;;
215;SDS011;70668;48.81286795;9.14184224;2023-11-21T06:35:17;6.93;;;2.50;;
215;SDS011;70668;48.81286795;9.14184224;2023-11-21T06:37:46;6.13;;;2.70;;
215;SDS011;70668;48.81286795;9.14184224;2023-11-21T06:40:16;4.93;;;2.37;;
215;SDS011;70668;48.81286795;9.14184224;2023-11-21T06:42:48;5.20;;;2.43;;
215;SDS011;70668;48.81286795;9.14184224;2023-11-21T06:45:17;5.27;;;2.40;;
215;SDS011;70668;48.81286795;9.14184224;2023-11-21T06:47:45;5.20;;;2.47;;
215;SDS011;70668;48.81286795;9.14184224;2023-11-21T06:50:14;5.90;;;2.30;;
215;SDS011;70668;48.81286795;9.14184224;2023-11-21T06:52:42;6.20;;;2.57;;
215;SDS011;70668;48.81286795;9.14184224;2023-11-21T06:55:11;6.20;;;2.50;;
215;SDS011;70668;48.81286795;9.14184224;2023-11-21T06:57:43;7.70;;;2.90;;
215;SDS011;70668;48.81286795;9.14184224;2023-11-21T07:00:13;6.73;;;3.17;;
215;SDS011;70668;48.81286795;9.14184224;2023-11-21T07:02:43;7.90;;;3.13;;
215;SDS011;70668;48.81286795;9.14184224;2023-11-21T07:05:12;8.30;;;3.10;;
215;SDS011;70668;48.81286795;9.14184224;2023-11-21T07:07:40;7.83;;;2.70;;
215;SDS011;70668;48.81286795;9.14184224;2023-11-21T07:10:10;5.53;;;2.70;;
215;SDS011;70668;48.81286795;9.14184224;2023-11-21T07:12:39;5.50;;;2.70;;
215;SDS011;70668;48.81286795;9.14184224;2023-11-21T07:15:10;4.63;;;2.90;;
215;SDS011;70668;48.81286795;9.14184224;2023-11-21T07:17:39;7.37;;;2.90;;
215;SDS011;70668;48.81286795;9.14184224;2023-11-21T07:20:09;6.50;;;2.93;;
215;SDS011;70668;48.81286795;9.14184224;2023-11-21T07:22:39;7.00;;;3.00;;
215;SDS011;70668;48.81286795;9.14184224;2023-11-21T07:25:07;4.27;;;2.73;;
215;SDS011;70668;48.81286795;9.14184224;2023-11-21T07:27:40;5.13;;;2.70;;
215;SDS011;70668;48.81286795;9.14184224;2023-11-21T07:30:12;10.03;;;3.10;;
215;SDS011;70668;48.81286795;9.14184224;2023-11-21T07:32:41;7.00;;;3.20;;
215;SDS011;70668;48.81286795;9.14184224;2023-11-21T07:35:10;6.33;;;3.40;;
215;SDS011;70668;48.81286795;9.14184224;2023-11-21T07:37:38;8.80;;;3.40;;
215;SDS011;70668;48.81286795;9.14184224;2023-11-21T07:40:08;5.33;;;2.83;;
215;SDS011;70668;48.81286795;9.14184224;2023-11-21T07:42:37;5.63;;;2.80;;
215;SDS011;70668;48.81286795;9.14184224;2023-11-21T07:45:08;6.00;;;2.90;;
215;SDS011;70668;48.81286795;9.14184224;2023-11-21T07:47:40;8.80;;;3.07;;
215;SDS011;70668;48.81286795;9.14184224;2023-11-21T07:50:09;5.47;;;2.80;;
215;SDS011;70668;48.81286795;9.14184224;2023-11-21T07:52:38;9.27;;;3.30;;
215;SDS011;70668;48.81286795;9.14184224;2023-11-21T07:55:07;5.97;;;2.93;;
215;SDS011;70668;48.81286795;9.14184224;2023-11-21T07:57:36;7.33;;;3.40;;
215;SDS011;70668;48.81286795;9.14184224;2023-11-21T08:00:06;5.87;;;3.40;;
215;SDS011;70668;48.81286795;9.14184224;2023-11-21T08:02:43;7.60;;;3.90;;
215;SDS011;70668;48.81286795;9.14184224;2023-11-21T08:05:11;6.93;;;3.60;;
215;SDS011;70668;48.81286795;9.14184224;2023-11-21T08:07:40;6.10;;;2.93;;
215;SDS011;70668;48.81286795;9.14184224;2023-11-21T08:10:09;5.70;;;3.20;;
215;SDS011;70668;48.81286795;9.14184224;2023-11-21T08:12:38;5.93;;;3.70;;
215;SDS011;70668;48.81286795;9.14184224;2023-11-21T08:15:08;6.50;;;3.60;;
215;SDS011;70668;48.81286795;9.14184224;2023-11-21T08:17:37;8.47;;;3.50;;
215;SDS011;70668;48.81286795;9.14184224;2023-11-21T08:20:09;7.93;;;3.70;;
215;SDS011;70668;48.81286795;9.14184224;2023-11-21T08:22:41;6.77;;;3.43;;
215;SDS011;70668;48.81286795;9.14184224;2023-11-21T08:25:10;7.53;;;3.47;;
215;SDS011;70668;48.81286795;9.14184224;2023-11-21T08:27:38;6.40;;;2.93;;
215;SDS011;70668;48.81286795;9.14184224;2023-11-21T08:30:07;4.27;;;2.57;;
215;SDS011;70668;48.81286795;9.14184224;2023-11-21T08:32:37;7.53;;;3.20;;
215;SDS011;70668;48.81286795;9.14184224;2023-11-21T08:35:09;4.20;;;2.60;;
215;SDS011;70668;48.81286795;9.14184224;2023-11-21T08:37:38;4.93;;;3.00;;
215;SDS011;70668;48.81286795;9.14184224;2023-11-21T08:40:07;6.33;;;3.00;;
215;SDS011;70668;48.81286795;9.14184224;2023-11-21T08:42:41;7.87;;;3.10;;
215;SDS011;70668;48.81286795;9.14184224;2023-11-21T08:45:10;6.50;;;3.37;;
215;SDS011;70668;48.81286795;9.14184224;2023-11-21T08:47:39;9.50;;;3.20;;
215;SDS011;70668;48.81286795;9.14184224;2023-11-21T08:50:12;5.90;;;3.50;;
215;SDS011;70668;48.81286795;9.14184224;2023-11-21T08:52:41;6.40;;;2.70;;
215;SDS011;70668;48.81286795;9.14184224;2023-11-21T08:55:11;6.57;;;3.20;;
215;SDS011;70668;48.81286795;9.14184224;2023-11-21T08:57:40;6.18;;;3.30;;
215;SDS011;70668;48.81286795;9.14184224;2023-11-21T09:00:09;8.23;;;3.73;;
215;SDS011;70668;48.81286795;9.14184224;2023-11-21T09:02:41;10.23;;;3.27;;
215;SDS011;70668;48.81286795;9.14184224;2023-11-21T09:05:13;6.27;;;3.27;;
215;SDS011;70668;48.81286795;9.14184224;2023-11-21T09:07:43;6.67;;;3.30;;
215;SDS011;70668;48.81286795;9.14184224;2023-11-21T09:10:14;7.30;;;3.20;;
215;SDS011;70668;48.81286795;9.14184224;2023-11-21T09:12:43;6.80;;;2.87;;
215;SDS011;70668;48.81286795;9.14184224;2023-11-21T09:15:11;5.27;;;3.00;;
215;SDS011;70668;48.81286795;9.14184224;2023-11-21T09:17:40;7.20;;;3.33;;
215;SDS011;70668;48.81286795;9.14184224;2023-11-21T09:20:12;5.80;;;3.30;;
215;SDS011;70668;48.81286795;9.14184224;2023-11-21T09:22:41;7.10;;;3.77;;
215;SDS011;70668;48.81286795;9.14184224;2023-11-21T09:25:10;6.00;;;3.40;;
215;SDS011;70668;48.81286795;9.14184224;2023-11-21T09:27:38;7.90;;;2.90;;
215;SDS011;70668;48.81286795;9.14184224;2023-11-21T09:30:07;4.33;;;2.70;;
215;SDS011;70668;48.81286795;9.14184224;2023-11-21T09:32:39;4.73;;;2.50;;
215;SDS011;70668;48.81286795;9.14184224;2023-11-21T09:35:13;4.67;;;2.43;;
215;SDS011;70668;48.81286795;9.14184224;2023-11-21T09:37:43;3.80;;;2.20;;
215;SDS011;70668;48.81286795;9.14184224;2023-11-21T09:40:11;4.30;;;2.40;;
215;SDS011;70668;48.81286795;9.14184224;2023-11-21T09:42:43;6.23;;;3.10;;
215;SDS011;70668;48.81286795;9.14184224;2023-11-21T09:45:18;4.77;;;2.90;;
215;SDS011;70668;48.81286795;9.14184224;2023-11-21T09:47:53;7.13;;;3.10;;
215;SDS011;70668;48.81286795;9.14184224;2023-11-21T09:50:25;11.83;;;3.30;;
215;SDS011;70668;48.81286795;9.14184224;2023-11-21T09:52:55;13.10;;;3.50;;
215;SDS011;70668;48.81286795;9.14184224;2023-11-21T09:55:27;7.37;;;2.90;;
215;SDS011;70668;48.81286795;9.14184224;2023-11-21T09:58:01;6.00;;;3.70;;
215;SDS011;70668;48.81286795;9.14184224;2023-11-21T10:00:32;4.70;;;2.30;;
215;SDS011;70668;48.81286795;9.14184224;2023-11-21T10:03:01;4.20;;;2.23;;
215;SDS011;70668;48.81286795;9.14184224;2023-11-21T10:05:33;4.90;;;2.40;;
215;SDS011;70668;48.81286795;9.14184224;2023-11-21T10:08:02;3.60;;;2.17;;
215;SDS011;70668;48.81286795;9.14184224;2023-11-21T10:10:32;4.57;;;2.10;;
215;SDS011;70668;48.81286795;9.14184224;2023-11-21T10:13:01;4.83;;;2.20;;
215;SDS011;70668;48.81286795;9.14184224;2023-11-21T10:15:33;4.73;;;2.30;;
215;SDS011;70668;48.81286795;9.14184224;2023-11-21T10:18:03;4.47;;;1.97;;
215;SDS011;70668;48.81286795;9.14184224;2023-11-21T10:20:37;3.70;;;1.80;;
215;SDS011;70668;48.81286795;9.14184224;2023-11-21T10:23:05;3.67;;;1.80;;
215;SDS011;70668;48.81286795;9.14184224;2023-11-21T10:25:36;4.53;;;2.00;;
215;SDS011;70668;48.81286795;9.14184224;2023-11-21T10:28:05;4.20;;;2.53;;
215;SDS011;70668;48.81286795;9.14184224;2023-11-21T10:30:34;4.80;;;2.50;;
215;SDS011;70668;48.81286795;9.14184224;2023-11-21T10:33:05;4.30;;;2.40;;
215;SDS011;70668;48.81286795;9.14184224;2023-11-21T10:35:42;3.40;;;2.10;;
215;SDS011;70668;48.81286795;9.14184224;2023-11-21T10:38:16;3.20;;;2.10;;
215;SDS011;70668;48.81286795;9.14184224;2023-11-21T10:40:46;4.53;;;2.40;;
215;SDS011;70668;48.81286795;9.14184224;2023-11-21T10:43:15;4.50;;;2.07;;
215;SDS011;70668;48.81286795;9.14184224;2023-11-21T10:45:44;3.30;;;2.10;;
215;SDS011;70668;48.81286795;9.14184224;2023-11-21T10:48:13;4.30;;;2.00;;
215;SDS011;70668;48.81286795;9.14184224;2023-11-21T10:50:46;3.00;;;1.80;;
215;SDS011;70668;48.81286795;9.14184224;2023-11-21T10:53:16;5.23;;;2.23;;
215;SDS011;70668;48.81286795;9.14184224;2023-11-21T10:55:45;4.90;;;2.27;;
215;SDS011;70668;48.81286795;9.14184224;2023-11-21T10:58:14;6.20;;;1.90;;
215;SDS011;70668;48.81286795;9.14184224;2023-11-21T11:00:43;4.60;;;2.10;;
215;SDS011;70668;48.81286795;9.14184224;2023-11-21T11:03:12;3.60;;;2.10;;
215;SDS011;70668;48.81286795;9.14184224;2023-11-21T11:05:41;4.70;;;2.27;;
215;SDS011;70668;48.81286795;9.14184224;2023-11-21T11:08:16;3.60;;;2.23;;
215;SDS011;70668;48.81286795;9.14184224;2023-11-21T11:10:51;5.13;;;2.30;;
215;SDS011;70668;48.81286795;9.14184224;2023-11-21T11:13:20;5.23;;;2.30;;
215;SDS011;70668;48.81286795;9.14184224;2023-11-21T11:15:49;11.83;;;2.80;;
215;SDS011;70668;48.81286795;9.14184224;2023-11-21T11:18:18;4.87;;;2.53;;
215;SDS011;70668;48.81286795;9.14184224;2023-11-21T11:20:51;7.63;;;2.40;;
215;SDS011;70668;48.81286795;9.14184224;2023-11-21T11:23:28;4.23;;;2.70;;
215;SDS011;70668;48.81286795;9.14184224;2023-11-21T11:26:07;8.00;;;3.00;;
215;SDS011;70668;48.81286795;9.14184224;2023-11-21T11:28:47;5.70;;;3.20;;
215;SDS011;70668;48.81286795;9.14184224;2023-11-21T11:31:23;4.40;;;3.00;;
215;SDS011;70668;48.81286795;9.14184224;2023-11-21T11:33:59;5.60;;;3.17;;
215;SDS011;70668;48.81286795;9.14184224;2023-11-21T11:36:39;5.43;;;3.60;;
215;SDS011;70668;48.81286795;9.14184224;2023-11-21T11:39:26;5.60;;;3.37;;
215;SDS011;70668;48.81286795;9.14184224;2023-11-21T11:41:55;5.50;;;3.40;;
215;SDS011;70668;48.81286795;9.14184224;2023-11-21T11:47:16;6.60;;;3.83;;
215;SDS011;70668;48.81286795;9.14184224;2023-11-21T11:49:58;7.50;;;4.17;;
215;SDS011;70668;48.81286795;9.14184224;2023-11-21T11:52:36;5.67;;;3.57;;
215;SDS011;70668;48.81286795;9.14184224;2023-11-21T11:55:07;6.17;;;3.20;;
215;SDS011;70668;48.81286795;9.14184224;2023-11-21T11:57:38;5.20;;;3.23;;
215;SDS011;70668;48.81286795;9.14184224;2023-11-21T12:00:18;5.37;;;3.07;;
215;SDS011;70668;48.81286795;9.14184224;2023-11-21T12:02:51;7.67;;;4.10;;
215;SDS011;70668;48.81286795;9.14184224;2023-11-21T12:05:22;5.57;;;2.87;;
215;SDS011;70668;48.81286795;9.14184224;2023-11-21T12:07:55;6.13;;;3.50;;
215;SDS011;70668;48.81286795;9.14184224;2023-11-21T12:10:26;5.33;;;3.30;;
215;SDS011;70668;48.81286795;9.14184224;2023-11-21T12:12:56;5.10;;;3.40;;
215;SDS011;70668;48.81286795;9.14184224;2023-11-21T12:15:25;5.43;;;3.43;;
215;SDS011;70668;48.81286795;9.14184224;2023-11-21T12:17:54;4.90;;;3.57;;
215;SDS011;70668;48.81286795;9.14184224;2023-11-21T12:20:24;7.17;;;3.67;;
215;SDS011;70668;48.81286795;9.14184224;2023-11-21T12:22:56;8.37;;;3.93;;
215;SDS011;70668;48.81286795;9.14184224;2023-11-21T12:25:26;6.03;;;3.33;;
215;SDS011;70668;48.81286795;9.14184224;2023-11-21T12:27:57;4.90;;;2.90;;
215;SDS011;70668;48.81286795;9.14184224;2023-11-21T12:30:28;4.37;;;2.70;;
215;SDS011;70668;48.81286795;9.14184224;2023-11-21T12:32:58;3.27;;;2.10;;
215;SDS011;70668;48.81286795;9.14184224;2023-11-21T12:35:28;3.90;;;2.43;;
215;SDS011;70668;48.81286795;9.14184224;2023-11-21T12:38:02;3.70;;;2.50;;
215;SDS011;70668;48.81286795;9.14184224;2023-11-21T12:40:34;4.70;;;2.60;;
215;SDS011;70668;48.81286795;9.14184224;2023-11-21T12:43:03;5.70;;;3.33;;
215;SDS011;70668;48.81286795;9.14184224;2023-11-21T12:45:32;7.70;;;4.33;;
215;SDS011;70668;48.81286795;9.14184224;2023-11-21T12:48:01;8.10;;;4.40;;
215;SDS011;70668;48.81286795;9.14184224;2023-11-21T12:50:33;7.10;;;3.60;;
215;SDS011;70668;48.81286795;9.14184224;2023-11-21T12:53:06;6.80;;;3.87;;
215;SDS011;70668;48.81286795;9.14184224;2023-11-21T12:55:37;6.03;;;3.37;;
215;SDS011;70668;48.81286795;9.14184224;2023-11-21T12:58:07;4.93;;;3.20;;
215;SDS011;70668;48.81286795;9.14184224;2023-11-21T13:00:38;4.90;;;3.30;;
215;SDS011;70668;48.81286795;9.14184224;2023-11-21T13:03:08;5.03;;;3.30;;
215;SDS011;70668;48.81286795;9.14184224;2023-11-21T13:05:41;4.93;;;3.50;;
215;SDS011;70668;48.81286795;9.14184224;2023-11-21T13:08:13;4.40;;;2.27;;
215;SDS011;70668;48.81286795;9.14184224;2023-11-21T13:10:45;2.80;;;1.73;;
215;SDS011;70668;48.81286795;9.14184224;2023-11-21T13:13:16;2.50;;;1.50;;
215;SDS011;70668;48.81286795;9.14184224;2023-11-21T13:15:48;3.50;;;1.63;;
215;SDS011;70668;48.81286795;9.14184224;2023-11-21T13:18:21;4.63;;;1.83;;
215;SDS011;70668;48.81286795;9.14184224;2023-11-21T13:20:52;3.47;;;1.77;;
215;SDS011;70668;48.81286795;9.14184224;2023-11-21T13:23:23;10.70;;;2.00;;
215;SDS011;70668;48.81286795;9.14184224;2023-11-21T13:25:52;3.80;;;2.10;;
215;SDS011;70668;48.81286795;9.14184224;2023-11-21T13:28:21;9.93;;;2.20;;
215;SDS011;70668;48.81286795;9.14184224;2023-11-21T13:30:57;8.30;;;2.47;;